createdAt,value
2018-08-12T00:02:10.581Z,1.47
2018-08-12T00:04:44.456Z,1.77
2018-08-12T00:07:18.057Z,1.35
2018-08-12T00:09:51.834Z,1.42
2018-08-12T00:12:25.848Z,1.50
2018-08-12T00:14:59.585Z,1.30
2018-08-12T00:17:33.176Z,1.60
2018-08-12T00:20:08.531Z,1.75
2018-08-12T00:22:42.569Z,1.85
2018-08-12T00:25:17.846Z,1.70
2018-08-12T00:27:51.504Z,1.90
2018-08-12T00:30:25.102Z,1.35
2018-08-12T00:32:59.002Z,1.70
2018-08-12T00:35:32.799Z,1.72
2018-08-12T00:38:06.947Z,1.60
2018-08-12T00:40:40.656Z,1.60
2018-08-12T00:43:15.322Z,1.60
2018-08-12T00:45:48.910Z,1.55
2018-08-12T00:48:22.843Z,1.10
2018-08-12T00:50:56.522Z,1.50
2018-08-12T00:53:30.260Z,1.50
2018-08-12T00:56:03.782Z,1.85
2018-08-12T00:58:37.419Z,1.80
2018-08-12T01:01:11.209Z,1.95
2018-08-12T01:03:44.821Z,1.82
2018-08-12T01:06:18.631Z,2.00
2018-08-12T01:08:52.230Z,1.80
2018-08-12T01:11:25.863Z,1.77
2018-08-12T01:13:59.627Z,1.90
2018-08-12T01:16:33.278Z,2.08
2018-08-12T01:19:07.141Z,2.33
2018-08-12T01:21:40.554Z,1.90
2018-08-12T01:24:14.024Z,1.87
2018-08-12T01:26:47.472Z,1.77
2018-08-12T01:29:20.973Z,1.60
2018-08-12T01:31:54.434Z,1.57
2018-08-12T01:34:27.905Z,1.60
2018-08-12T01:37:01.356Z,1.80
2018-08-12T01:39:34.831Z,1.30
2018-08-12T01:42:08.268Z,1.60
2018-08-12T01:44:41.720Z,1.50
2018-08-12T01:47:15.136Z,1.92
2018-08-12T01:49:48.563Z,2.10
2018-08-12T01:52:21.984Z,1.60
2018-08-12T01:54:55.459Z,1.60
2018-08-12T01:57:28.855Z,1.97
2018-08-12T02:00:02.417Z,1.93
2018-08-12T02:02:35.843Z,2.15
2018-08-12T02:05:09.264Z,1.90
2018-08-12T02:07:42.795Z,1.70
2018-08-12T02:10:16.250Z,1.67
2018-08-12T02:12:49.655Z,1.70
2018-08-12T02:15:23.087Z,1.57
2018-08-12T02:17:56.480Z,1.95
2018-08-12T02:20:29.913Z,1.85
2018-08-12T02:23:03.319Z,1.92
2018-08-12T02:25:36.784Z,2.83
2018-08-12T02:28:10.178Z,1.65
2018-08-12T02:30:43.608Z,2.02
2018-08-12T02:33:17.079Z,2.10
2018-08-12T02:35:50.503Z,1.80
2018-08-12T02:38:23.955Z,1.85
2018-08-12T02:40:57.374Z,2.00
2018-08-12T02:43:30.805Z,1.90
2018-08-12T02:46:04.248Z,1.62
2018-08-12T02:48:37.648Z,1.57
2018-08-12T02:51:11.050Z,1.70
2018-08-12T02:53:44.548Z,1.60
2018-08-12T02:56:17.995Z,1.70
2018-08-12T02:58:51.409Z,1.73
2018-08-12T03:01:24.841Z,1.53
2018-08-12T03:03:58.251Z,1.60
2018-08-12T03:06:31.627Z,1.77
2018-08-12T03:09:08.472Z,1.70
2018-08-12T03:11:42.299Z,1.70
2018-08-12T03:14:15.733Z,2.33
2018-08-12T03:16:49.154Z,1.50
2018-08-12T03:19:22.649Z,1.60
2018-08-12T03:21:56.051Z,1.72
2018-08-12T03:24:29.503Z,2.30
2018-08-12T03:27:02.914Z,1.67
2018-08-12T03:29:36.374Z,1.80
2018-08-12T03:32:09.890Z,2.03
2018-08-12T03:34:43.296Z,2.00
2018-08-12T03:37:16.691Z,1.60
2018-08-12T03:39:51.055Z,1.90
2018-08-12T03:42:24.450Z,1.83
2018-08-12T03:44:57.871Z,1.80
2018-08-12T03:47:31.275Z,1.80
2018-08-12T03:50:05.392Z,1.70
2018-08-12T03:52:39.135Z,1.93
2018-08-12T03:55:13.372Z,1.40
2018-08-12T03:57:46.820Z,1.37
2018-08-12T04:00:20.303Z,1.63
2018-08-12T04:02:54.370Z,1.60
2018-08-12T04:05:29.103Z,1.70
2018-08-12T04:08:03.543Z,1.70
2018-08-12T04:10:37.538Z,1.40
2018-08-12T04:13:11.631Z,1.70
2018-08-12T04:15:45.561Z,1.80
2018-08-12T04:18:20.963Z,2.13
2018-08-12T04:20:55.014Z,2.03
2018-08-12T04:23:28.990Z,2.60
2018-08-12T04:26:02.914Z,3.20
2018-08-12T04:28:37.004Z,2.87
2018-08-12T04:31:11.069Z,3.40
2018-08-12T04:33:45.014Z,2.90
2018-08-12T04:36:18.991Z,2.98
2018-08-12T04:38:53.048Z,3.60
2018-08-12T04:41:27.024Z,3.70
2018-08-12T04:44:00.951Z,3.50
2018-08-12T04:46:35.548Z,3.27
2018-08-12T04:49:10.481Z,3.20
2018-08-12T04:51:44.504Z,3.52
2018-08-12T04:54:18.457Z,3.55
2018-08-12T04:56:52.529Z,3.45
2018-08-12T04:59:26.488Z,3.67
2018-08-12T05:02:00.426Z,4.05
2018-08-12T05:04:34.415Z,3.45
2018-08-12T05:07:08.480Z,3.60
2018-08-12T05:09:42.498Z,4.33
2018-08-12T05:12:16.478Z,3.80
2018-08-12T05:14:50.487Z,4.50
2018-08-12T05:17:24.436Z,4.15
2018-08-12T05:19:58.526Z,3.70
2018-08-12T05:22:32.494Z,3.80
2018-08-12T05:25:06.541Z,3.37
2018-08-12T05:27:40.483Z,3.50
2018-08-12T05:30:14.541Z,3.75
2018-08-12T05:32:48.474Z,4.00
2018-08-12T05:35:22.428Z,3.77
2018-08-12T05:37:56.463Z,3.92
2018-08-12T05:40:30.471Z,3.85
2018-08-12T05:43:04.441Z,3.35
2018-08-12T05:45:38.460Z,3.05
2018-08-12T05:48:12.436Z,3.45
2018-08-12T05:50:46.276Z,3.62
2018-08-12T05:53:20.306Z,3.65
2018-08-12T05:55:54.150Z,3.00
2018-08-12T05:58:28.159Z,3.30
2018-08-12T06:01:02.197Z,2.72
2018-08-12T06:03:36.114Z,2.77
2018-08-12T06:06:10.184Z,2.77
2018-08-12T06:08:43.592Z,2.80
2018-08-12T06:11:17.023Z,2.80
2018-08-12T06:13:50.432Z,2.60
2018-08-12T06:16:23.851Z,2.55
2018-08-12T06:18:57.292Z,2.67
2018-08-12T06:21:30.713Z,2.50
2018-08-12T06:24:04.190Z,2.30
2018-08-12T06:26:37.637Z,2.22
2018-08-12T06:29:11.037Z,2.30
2018-08-12T06:31:44.477Z,2.40
2018-08-12T06:34:17.936Z,2.30
2018-08-12T06:36:51.332Z,2.42
2018-08-12T06:39:24.744Z,2.17
2018-08-12T06:41:58.152Z,1.92
2018-08-12T06:44:31.549Z,2.05
2018-08-12T06:47:05.034Z,2.00
2018-08-12T06:49:38.448Z,2.08
2018-08-12T06:52:11.890Z,1.95
2018-08-12T06:54:45.280Z,1.80
2018-08-12T06:57:18.668Z,1.80
2018-08-12T06:59:52.066Z,2.20
2018-08-12T07:02:25.578Z,2.05
2018-08-12T07:04:59.018Z,2.00
2018-08-12T07:07:32.436Z,1.60
2018-08-12T07:10:07.922Z,1.87
2018-08-12T07:12:41.751Z,1.90
2018-08-12T07:15:17.619Z,1.80
2018-08-12T07:17:51.060Z,1.55
2018-08-12T07:20:24.470Z,1.57
2018-08-12T07:22:57.898Z,1.30
2018-08-12T07:25:31.362Z,1.82
2018-08-12T07:28:04.829Z,1.77
2018-08-12T07:30:38.279Z,1.57
2018-08-12T07:33:11.686Z,1.85
2018-08-12T07:35:45.083Z,1.37
2018-08-12T07:38:18.560Z,1.40
2018-08-12T07:40:51.969Z,1.25
2018-08-12T07:43:25.404Z,1.52
2018-08-12T07:45:58.820Z,1.30
2018-08-12T07:48:32.399Z,1.50
2018-08-12T07:51:05.801Z,1.65
2018-08-12T07:53:39.275Z,1.60
2018-08-12T07:56:12.765Z,1.50
2018-08-12T07:58:45.210Z,1.55
2018-08-12T08:01:18.685Z,1.42
2018-08-12T08:03:52.548Z,1.62
2018-08-12T08:06:26.070Z,1.65
2018-08-12T08:08:59.622Z,1.40
2018-08-12T08:11:33.074Z,1.45
2018-08-12T08:14:06.718Z,1.30
2018-08-12T08:16:40.215Z,1.90
2018-08-12T08:19:13.687Z,1.60
2018-08-12T08:21:47.121Z,2.30
2018-08-12T08:24:20.708Z,1.42
2018-08-12T08:26:54.117Z,1.40
2018-08-12T08:29:27.632Z,1.60
2018-08-12T08:32:02.074Z,1.55
2018-08-12T08:34:36.474Z,1.62
2018-08-12T08:37:10.037Z,1.55
2018-08-12T08:39:44.297Z,1.47
2018-08-12T08:42:17.953Z,1.45
2018-08-12T08:44:51.384Z,1.62
2018-08-12T08:47:32.992Z,1.65
2018-08-12T08:50:06.573Z,1.85
2018-08-12T08:52:40.007Z,1.62
2018-08-12T08:55:14.375Z,1.50
2018-08-12T08:57:48.438Z,1.72
2018-08-12T09:00:22.290Z,1.90
2018-08-12T09:02:55.819Z,1.67
2018-08-12T09:05:29.295Z,1.65
2018-08-12T09:08:02.820Z,2.37
2018-08-12T09:10:36.490Z,1.80
2018-08-12T09:13:09.975Z,2.37
2018-08-12T09:15:43.355Z,2.08
2018-08-12T09:18:16.905Z,2.22
2018-08-12T09:20:50.259Z,2.47
2018-08-12T09:23:23.765Z,1.98
2018-08-12T09:25:57.278Z,2.60
2018-08-12T09:28:30.894Z,2.05
2018-08-12T09:31:04.326Z,1.77
2018-08-12T09:33:37.949Z,1.57
2018-08-12T09:36:11.663Z,1.95
2018-08-12T09:38:45.495Z,1.95
2018-08-12T09:41:18.912Z,1.62
2018-08-12T09:43:52.439Z,1.90
2018-08-12T09:46:25.865Z,1.65
2018-08-12T09:48:59.340Z,1.60
2018-08-12T09:51:33.058Z,2.00
2018-08-12T09:54:06.512Z,2.00
2018-08-12T09:56:39.965Z,2.00
2018-08-12T09:59:13.422Z,1.87
2018-08-12T10:01:46.963Z,2.30
2018-08-12T10:04:21.022Z,1.87
2018-08-12T10:06:55.093Z,1.85
2018-08-12T10:09:29.264Z,1.60
2018-08-12T10:12:04.802Z,1.45
2018-08-12T10:14:38.802Z,1.80
2018-08-12T10:17:12.708Z,2.10
2018-08-12T10:19:46.536Z,1.40
2018-08-12T10:22:20.802Z,1.92
2018-08-12T10:24:55.040Z,1.98
2018-08-12T10:27:29.233Z,1.85
2018-08-12T10:30:03.567Z,1.85
2018-08-12T10:32:37.612Z,1.40
2018-08-12T10:35:14.614Z,1.70
2018-08-12T10:37:48.572Z,2.17
2018-08-12T10:40:22.297Z,1.72
2018-08-12T10:42:56.968Z,2.02
2018-08-12T10:45:30.727Z,1.57
2018-08-12T10:48:04.446Z,1.60
2018-08-12T10:50:37.976Z,1.95
2018-08-12T10:53:12.544Z,1.62
2018-08-12T10:55:46.431Z,2.17
2018-08-12T10:58:20.248Z,1.77
2018-08-12T11:00:56.057Z,1.80
2018-08-12T11:03:29.914Z,1.70
2018-08-12T11:06:03.932Z,1.60
2018-08-12T11:08:37.936Z,2.05
2018-08-12T11:11:11.926Z,1.82
2018-08-12T11:13:45.922Z,1.82
2018-08-12T11:16:19.890Z,1.77
2018-08-12T11:18:53.936Z,1.90
2018-08-12T11:21:27.923Z,2.33
2018-08-12T11:24:01.908Z,1.70
2018-08-12T11:26:36.410Z,1.70
2018-08-12T11:29:10.366Z,1.70
2018-08-12T11:31:44.338Z,1.37
2018-08-12T11:34:18.300Z,1.65
2018-08-12T11:36:51.984Z,1.60
2018-08-12T11:39:26.489Z,1.80
2018-08-12T11:42:00.463Z,1.75
2018-08-12T11:44:34.388Z,1.85
2018-08-12T11:47:09.049Z,1.70
2018-08-12T11:49:42.915Z,1.80
2018-08-12T11:52:16.420Z,1.65
2018-08-12T11:54:49.889Z,1.50
2018-08-12T11:57:23.328Z,1.82
2018-08-12T11:59:56.797Z,1.50
2018-08-12T12:02:30.265Z,1.55
2018-08-12T12:05:03.847Z,1.60
2018-08-12T12:07:38.136Z,1.50
2018-08-12T12:10:14.336Z,1.70
2018-08-12T12:12:49.366Z,1.60
2018-08-12T12:15:22.863Z,1.52
2018-08-12T12:17:56.332Z,1.60
2018-08-12T12:20:29.816Z,1.62
2018-08-12T12:23:03.236Z,1.60
2018-08-12T12:25:36.693Z,1.90
2018-08-12T12:28:10.262Z,1.75
2018-08-12T12:30:43.739Z,1.90
2018-08-12T12:33:17.720Z,1.50
2018-08-12T12:35:51.740Z,1.60
2018-08-12T12:38:25.946Z,1.82
2018-08-12T12:40:59.883Z,1.50
2018-08-12T12:43:33.859Z,1.40
2018-08-12T12:46:07.621Z,1.80
2018-08-12T12:48:41.573Z,1.80
2018-08-12T12:51:16.597Z,1.87
2018-08-12T12:53:50.648Z,2.08
2018-08-12T12:56:25.069Z,1.90
2018-08-12T12:58:59.000Z,1.60
2018-08-12T13:01:32.996Z,2.17
2018-08-12T13:04:06.890Z,1.90
2018-08-12T13:06:40.468Z,1.50
2018-08-12T13:09:14.394Z,1.75
2018-08-12T13:11:49.387Z,1.77
2018-08-12T13:14:23.130Z,2.17
2018-08-12T13:16:56.947Z,1.95
2018-08-12T13:19:31.056Z,1.40
2018-08-12T13:22:05.036Z,1.92
2018-08-12T13:24:39.544Z,1.80
2018-08-12T13:27:13.182Z,1.90
2018-08-12T13:29:47.034Z,1.70
2018-08-12T13:32:21.079Z,1.42
2018-08-12T13:34:55.023Z,1.85
2018-08-12T13:37:32.283Z,1.60
2018-08-12T13:40:11.526Z,1.40
2018-08-12T13:42:46.463Z,1.92
2018-08-12T13:45:19.883Z,1.62
2018-08-12T13:47:53.303Z,1.25
2018-08-12T13:50:26.747Z,1.90
2018-08-12T13:53:00.189Z,1.57
2018-08-12T13:55:35.920Z,1.35
2018-08-12T13:58:10.007Z,1.50
2018-08-12T14:00:43.439Z,1.40
2018-08-12T14:03:16.850Z,1.15
2018-08-12T14:05:50.278Z,1.55
2018-08-12T14:08:23.795Z,1.72
2018-08-12T14:10:57.212Z,1.80
2018-08-12T14:13:30.720Z,1.50
2018-08-12T14:16:04.274Z,1.55
2018-08-12T14:18:37.793Z,1.72
2018-08-12T14:21:11.333Z,1.35
2018-08-12T14:23:44.736Z,1.60
2018-08-12T14:26:19.145Z,1.30
2018-08-12T14:28:52.564Z,1.60
2018-08-12T14:31:26.062Z,1.30
2018-08-12T14:33:59.507Z,1.47
2018-08-12T14:36:32.954Z,1.30
2018-08-12T14:39:08.457Z,1.42
2018-08-12T14:41:41.872Z,1.60
2018-08-12T14:44:15.265Z,1.75
2018-08-12T14:46:48.681Z,1.55
2018-08-12T14:49:22.067Z,1.52
2018-08-12T14:51:55.504Z,1.80
2018-08-12T14:54:28.903Z,1.20
2018-08-12T14:57:02.352Z,1.15
2018-08-12T14:59:35.781Z,1.40
2018-08-12T15:02:09.262Z,1.27
2018-08-12T15:04:42.713Z,1.50
2018-08-12T15:07:16.199Z,1.57
2018-08-12T15:09:49.526Z,1.65
2018-08-12T15:12:23.730Z,1.50
2018-08-12T15:14:57.146Z,1.27
2018-08-12T15:17:30.756Z,1.42
2018-08-12T15:20:04.809Z,1.42
2018-08-12T15:22:38.471Z,1.37
2018-08-12T15:25:15.699Z,1.30
2018-08-12T15:27:49.152Z,1.37
2018-08-12T15:30:22.542Z,1.52
2018-08-12T15:32:55.960Z,1.35
2018-08-12T15:35:29.581Z,1.50
2018-08-12T15:38:09.429Z,1.90
2018-08-12T15:40:43.088Z,1.70
2018-08-12T15:43:16.606Z,1.77
2018-08-12T15:45:50.122Z,1.60
2018-08-12T15:48:23.652Z,1.50
2018-08-12T15:50:57.134Z,1.42
2018-08-12T15:53:30.629Z,1.55
2018-08-12T15:56:04.454Z,1.32
2018-08-12T15:58:38.095Z,1.35
2018-08-12T16:01:11.604Z,1.30
2018-08-12T16:03:45.212Z,1.35
2018-08-12T16:06:18.750Z,1.30
2018-08-12T16:08:52.354Z,1.37
2018-08-12T16:11:26.093Z,1.27
2018-08-12T16:14:02.073Z,1.42
2018-08-12T16:16:36.148Z,1.50
2018-08-12T16:19:09.799Z,1.30
2018-08-12T16:21:43.568Z,1.45
2018-08-12T16:24:17.111Z,1.60
2018-08-12T16:26:50.670Z,1.62
2018-08-12T16:29:30.978Z,1.50
2018-08-12T16:32:12.277Z,1.60
2018-08-12T16:34:52.245Z,1.37
2018-08-12T16:37:27.821Z,1.60
2018-08-12T16:40:01.423Z,1.50
2018-08-12T16:42:38.130Z,1.25
2018-08-12T16:45:14.310Z,1.30
2018-08-12T16:47:48.396Z,1.42
2018-08-12T16:50:21.885Z,1.05
2018-08-12T16:52:55.385Z,1.42
2018-08-12T16:55:29.028Z,1.42
2018-08-12T16:58:02.620Z,1.50
2018-08-12T17:00:36.209Z,1.47
2018-08-12T17:03:09.759Z,1.40
2018-08-12T17:05:43.290Z,1.60
2018-08-12T17:08:16.907Z,1.30
2018-08-12T17:10:50.391Z,1.62
2018-08-12T17:13:23.933Z,1.57
2018-08-12T17:15:57.471Z,1.30
2018-08-12T17:18:31.714Z,1.40
2018-08-12T17:21:05.679Z,1.60
2018-08-12T17:23:39.826Z,1.40
2018-08-12T17:26:13.848Z,1.20
2018-08-12T17:28:47.578Z,1.37
2018-08-12T17:31:21.683Z,1.50
2018-08-12T17:33:55.587Z,1.47
2018-08-12T17:36:29.731Z,1.25
2018-08-12T17:39:04.047Z,1.37
2018-08-12T17:41:38.021Z,1.32
2018-08-12T17:44:12.668Z,1.57
2018-08-12T17:46:47.504Z,1.32
2018-08-12T17:49:21.663Z,1.30
2018-08-12T17:51:55.576Z,1.50
2018-08-12T17:54:29.519Z,1.40
2018-08-12T17:57:04.985Z,1.30
2018-08-12T17:59:39.088Z,1.35
2018-08-12T18:02:15.012Z,1.50
2018-08-12T18:04:50.028Z,1.62
2018-08-12T18:07:24.570Z,1.40
2018-08-12T18:09:59.191Z,1.40
2018-08-12T18:12:33.544Z,1.37
2018-08-12T18:15:08.950Z,1.30
2018-08-12T18:17:43.439Z,1.50
2018-08-12T18:20:17.609Z,1.50
2018-08-12T18:22:51.579Z,1.35
2018-08-12T18:25:26.039Z,1.55
2018-08-12T18:28:00.506Z,1.35
2018-08-12T18:30:34.371Z,1.60
2018-08-12T18:33:08.427Z,1.30
2018-08-12T18:35:42.471Z,1.42
2018-08-12T18:38:17.090Z,1.52
2018-08-12T18:40:51.434Z,1.10
2018-08-12T18:43:25.510Z,1.32
2018-08-12T18:46:00.011Z,1.40
2018-08-12T18:48:33.960Z,1.30
2018-08-12T18:51:08.546Z,1.22
2018-08-12T18:53:42.571Z,1.40
2018-08-12T18:56:16.417Z,1.60
2018-08-12T18:58:50.488Z,1.70
2018-08-12T19:01:25.065Z,1.50
2018-08-12T19:03:59.039Z,1.50
2018-08-12T19:06:33.050Z,1.37
2018-08-12T19:09:09.405Z,1.50
2018-08-12T19:11:43.596Z,1.40
2018-08-12T19:14:17.558Z,1.60
2018-08-12T19:16:51.536Z,1.60
2018-08-12T19:19:25.535Z,1.57
2018-08-12T19:21:59.598Z,1.70
2018-08-12T19:24:34.079Z,1.52
2018-08-12T19:27:08.121Z,1.30
2018-08-12T19:29:41.925Z,1.50
2018-08-12T19:32:16.221Z,1.32
2018-08-12T19:34:51.286Z,1.35
2018-08-12T19:37:25.492Z,1.50
2018-08-12T19:39:59.451Z,1.50
2018-08-12T19:42:32.852Z,1.52
2018-08-12T19:45:07.504Z,1.40
2018-08-12T19:47:40.885Z,1.45
2018-08-12T19:50:14.270Z,1.60
2018-08-12T19:52:47.729Z,1.50
2018-08-12T19:55:21.109Z,1.32
2018-08-12T19:57:54.462Z,1.65
2018-08-12T20:00:27.924Z,1.75
2018-08-12T20:03:01.329Z,1.47
2018-08-12T20:05:34.715Z,1.47
2018-08-12T20:08:08.112Z,1.62
2018-08-12T20:10:41.495Z,1.95
2018-08-12T20:13:14.857Z,1.95
2018-08-12T20:15:48.349Z,1.90
2018-08-12T20:18:21.699Z,1.60
2018-08-12T20:20:55.117Z,1.60
2018-08-12T20:23:28.467Z,1.82
2018-08-12T20:26:01.959Z,1.75
2018-08-12T20:28:35.334Z,1.80
2018-08-12T20:31:08.727Z,1.60
2018-08-12T20:33:42.092Z,1.75
2018-08-12T20:36:15.503Z,2.17
2018-08-12T20:38:48.889Z,2.10
2018-08-12T20:41:22.299Z,1.72
2018-08-12T20:43:55.883Z,1.98
2018-08-12T20:46:29.327Z,2.05
2018-08-12T20:49:02.734Z,1.70
2018-08-12T20:51:36.151Z,1.77
2018-08-12T20:54:09.525Z,1.80
2018-08-12T20:56:42.924Z,1.92
2018-08-12T20:59:16.292Z,1.95
2018-08-12T21:01:49.762Z,1.90
2018-08-12T21:04:23.162Z,2.20
2018-08-12T21:06:56.566Z,1.75
2018-08-12T21:09:29.947Z,1.77
2018-08-12T21:12:03.621Z,2.10
2018-08-12T21:14:36.814Z,2.12
2018-08-12T21:17:10.214Z,2.10
2018-08-12T21:19:43.600Z,1.92
2018-08-12T21:22:17.043Z,2.08
2018-08-12T21:24:50.395Z,2.12
2018-08-12T21:27:23.787Z,2.17
2018-08-12T21:29:57.134Z,2.00
2018-08-12T21:32:30.552Z,1.77
2018-08-12T21:35:03.970Z,1.90
2018-08-12T21:37:37.357Z,2.05
2018-08-12T21:40:10.736Z,2.50
2018-08-12T21:42:44.111Z,1.92
2018-08-12T21:45:17.573Z,1.82
2018-08-12T21:47:50.946Z,1.82
2018-08-12T21:50:24.335Z,2.20
2018-08-12T21:52:57.755Z,2.10
2018-08-12T21:55:31.183Z,2.20
2018-08-12T21:58:04.608Z,2.20
2018-08-12T22:00:38.039Z,1.98
2018-08-12T22:03:11.479Z,2.10
2018-08-12T22:05:45.157Z,2.10
2018-08-12T22:08:18.548Z,2.20
2018-08-12T22:10:51.928Z,1.82
2018-08-12T22:13:25.364Z,2.02
2018-08-12T22:15:58.771Z,2.30
2018-08-12T22:18:32.248Z,2.00
2018-08-12T22:21:05.659Z,2.37
2018-08-12T22:23:39.083Z,2.10
2018-08-12T22:26:12.432Z,2.30
2018-08-12T22:28:45.823Z,2.00
2018-08-12T22:31:19.196Z,2.30
2018-08-12T22:33:52.803Z,2.10
2018-08-12T22:36:26.184Z,2.20
2018-08-12T22:38:59.594Z,2.10
2018-08-12T22:41:32.944Z,2.42
2018-08-12T22:44:06.418Z,2.10
2018-08-12T22:46:39.805Z,2.20
2018-08-12T22:49:13.182Z,1.77
2018-08-12T22:51:46.586Z,2.00
2018-08-12T22:54:20.079Z,2.00
2018-08-12T22:56:53.497Z,2.60
2018-08-12T22:59:26.908Z,2.30
2018-08-12T23:02:00.355Z,2.50
2018-08-12T23:04:33.746Z,2.00
2018-08-12T23:07:07.256Z,2.47
2018-08-12T23:09:40.719Z,2.60
2018-08-12T23:12:14.157Z,2.25
2018-08-12T23:14:47.547Z,2.00
2018-08-12T23:17:20.963Z,2.30
2018-08-12T23:19:54.357Z,2.02
2018-08-12T23:22:27.762Z,1.98
2018-08-12T23:25:01.150Z,2.15
2018-08-12T23:27:34.591Z,2.27
2018-08-12T23:30:08.734Z,2.20
2018-08-12T23:32:42.116Z,2.10
2018-08-12T23:35:15.479Z,2.35
2018-08-12T23:37:48.868Z,2.08
2018-08-12T23:40:22.274Z,2.12
2018-08-12T23:42:55.670Z,2.15
2018-08-12T23:45:29.086Z,2.10
2018-08-12T23:48:02.562Z,2.30
2018-08-12T23:50:35.943Z,2.40
2018-08-12T23:53:09.335Z,2.52
2018-08-12T23:55:42.792Z,2.40
2018-08-12T23:58:16.255Z,2.33
